createdAt,value
2023-02-27T00:02:02.373Z,1.49
2023-02-27T00:04:29.043Z,1.51
2023-02-27T00:06:56.012Z,1.52
2023-02-27T00:09:24.134Z,1.47
2023-02-27T00:11:50.789Z,1.47
2023-02-27T00:14:17.695Z,1.45
2023-02-27T00:16:44.504Z,1.45
2023-02-27T00:19:11.730Z,1.44
2023-02-27T00:21:38.562Z,1.45
2023-02-27T00:24:05.748Z,1.36
2023-02-27T00:26:32.524Z,1.34
2023-02-27T00:28:59.063Z,1.34
2023-02-27T00:31:25.954Z,1.34
2023-02-27T00:33:52.608Z,1.32
2023-02-27T00:36:19.264Z,1.29
2023-02-27T00:38:45.767Z,1.27
2023-02-27T00:41:12.374Z,1.31
2023-02-27T00:43:38.898Z,1.27
2023-02-27T00:46:05.744Z,1.27
2023-02-27T00:48:32.583Z,1.25
2023-02-27T00:50:59.239Z,1.23
2023-02-27T00:53:25.788Z,1.20
2023-02-27T00:55:52.301Z,1.18
2023-02-27T00:58:18.886Z,1.15
2023-02-27T01:00:46.784Z,1.10
2023-02-27T01:03:13.879Z,1.10
2023-02-27T01:05:40.540Z,1.08
2023-02-27T01:08:07.280Z,1.10
2023-02-27T01:10:33.951Z,1.14
2023-02-27T01:13:00.641Z,1.14
2023-02-27T01:15:27.213Z,1.10
2023-02-27T01:17:53.765Z,1.09
2023-02-27T01:20:20.463Z,1.09
2023-02-27T01:22:47.039Z,1.08
2023-02-27T01:25:13.612Z,1.03
2023-02-27T01:27:40.731Z,0.99
2023-02-27T01:30:08.825Z,0.98
2023-02-27T01:32:35.415Z,0.94
2023-02-27T01:35:02.894Z,0.91
2023-02-27T01:37:29.498Z,0.88
2023-02-27T01:39:56.052Z,0.85
2023-02-27T01:42:25.929Z,0.84
2023-02-27T01:45:04.928Z,0.85
2023-02-27T01:47:31.974Z,0.83
2023-02-27T01:49:59.474Z,0.81
2023-02-27T01:52:27.709Z,0.80
2023-02-27T01:54:55.498Z,0.76
2023-02-27T01:57:22.977Z,0.75
2023-02-27T01:59:49.750Z,0.74
2023-02-27T02:02:24.329Z,0.72
2023-02-27T02:04:51.594Z,0.70
2023-02-27T02:07:20.880Z,0.69
2023-02-27T02:09:51.783Z,0.66
2023-02-27T02:12:22.509Z,0.62
2023-02-27T02:14:49.983Z,0.58
2023-02-27T02:17:32.585Z,0.57
2023-02-27T02:20:15.293Z,0.56
2023-02-27T02:23:19.396Z,0.55
2023-02-27T02:26:05.586Z,0.54
2023-02-27T02:28:47.386Z,0.51
2023-02-27T02:31:39.053Z,0.48
2023-02-27T02:34:30.716Z,0.44
2023-02-27T02:37:08.328Z,0.40
2023-02-27T02:39:41.776Z,0.38
2023-02-27T02:42:24.480Z,0.39
2023-02-27T02:44:51.928Z,0.40
2023-02-27T02:47:29.929Z,0.39
2023-02-27T02:50:21.799Z,0.40
2023-02-27T02:53:01.564Z,0.40
2023-02-27T02:55:35.055Z,0.41
2023-02-27T02:58:17.300Z,0.36
2023-02-27T03:00:54.976Z,0.39
2023-02-27T03:03:34.414Z,0.41
2023-02-27T03:06:06.429Z,0.43
2023-02-27T03:08:40.589Z,0.41
2023-02-27T03:11:07.381Z,0.42
2023-02-27T03:13:41.020Z,0.39
2023-02-27T03:16:25.531Z,0.36
2023-02-27T03:19:00.542Z,0.34
2023-02-27T03:21:37.715Z,0.29
2023-02-27T03:24:07.944Z,0.27
2023-02-27T03:26:39.790Z,0.28
2023-02-27T03:29:12.863Z,0.25
2023-02-27T03:31:56.900Z,0.25
2023-02-27T03:34:30.158Z,0.25
2023-02-27T03:37:07.617Z,0.25
2023-02-27T03:42:41.170Z,0.20
2023-02-27T03:45:29.061Z,0.25
2023-02-27T03:47:55.795Z,0.27
2023-02-27T03:50:22.517Z,0.27
2023-02-27T03:52:50.013Z,0.28
2023-02-27T03:55:25.185Z,0.28
2023-02-27T03:57:52.412Z,0.29
2023-02-27T04:00:22.813Z,0.28
2023-02-27T04:02:51.690Z,0.24
2023-02-27T04:05:19.518Z,0.20
2023-02-27T04:08:02.829Z,0.19
2023-02-27T04:10:36.290Z,0.18
2023-02-27T04:13:03.764Z,0.16
2023-02-27T04:16:00.861Z,0.17
2023-02-27T04:18:56.745Z,0.15
2023-02-27T04:21:29.547Z,0.16
2023-02-27T04:24:14.148Z,0.13
2023-02-27T04:26:54.639Z,0.15
2023-02-27T04:29:44.419Z,0.16
2023-02-27T04:32:43.917Z,0.16
2023-02-27T04:35:17.359Z,0.16
2023-02-27T04:37:52.676Z,0.19
2023-02-27T04:40:24.320Z,0.20
2023-02-27T04:42:54.974Z,0.18
2023-02-27T04:45:26.048Z,0.19
2023-02-27T04:47:58.979Z,0.21
2023-02-27T04:50:30.824Z,0.21
2023-02-27T04:53:04.692Z,0.19
2023-02-27T04:55:36.324Z,0.15
2023-02-27T04:58:13.363Z,0.10
2023-02-27T05:00:43.190Z,0.07
2023-02-27T05:03:16.749Z,0.05
2023-02-27T05:05:48.276Z,0.03
2023-02-27T05:08:26.806Z,-0.01
2023-02-27T05:11:05.935Z,0.04
2023-02-27T05:13:38.171Z,0.06
2023-02-27T05:16:14.826Z,0.09
2023-02-27T05:18:41.637Z,0.11
2023-02-27T05:21:15.285Z,0.12
2023-02-27T05:23:51.069Z,0.18
2023-02-27T05:26:27.263Z,0.17
2023-02-27T05:28:58.413Z,0.18
2023-02-27T05:31:43.816Z,0.13
2023-02-27T05:34:18.875Z,0.11
2023-02-27T05:36:53.847Z,0.06
2023-02-27T05:39:24.374Z,0.06
2023-02-27T05:42:00.621Z,0.03
2023-02-27T05:44:35.535Z,0.02
2023-02-27T05:47:10.619Z,-0.01
2023-02-27T05:49:42.481Z,0.01
2023-02-27T05:52:15.089Z,-0.03
2023-02-27T05:54:51.800Z,-0.02
2023-02-27T05:57:27.830Z,0.01
2023-02-27T06:00:11.577Z,-0.01
2023-02-27T06:02:39.209Z,0.01
2023-02-27T06:05:06.705Z,-0.03
2023-02-27T06:07:34.605Z,-0.03
2023-02-27T06:10:01.283Z,-0.03
2023-02-27T06:12:28.069Z,-0.05
2023-02-27T06:14:54.665Z,-0.08
2023-02-27T06:17:22.261Z,-0.13
2023-02-27T06:19:48.831Z,-0.10
2023-02-27T06:22:16.506Z,-0.12
2023-02-27T06:24:43.112Z,-0.08
2023-02-27T06:27:09.676Z,-0.13
2023-02-27T06:29:36.253Z,-0.13
2023-02-27T06:32:02.910Z,-0.12
2023-02-27T06:34:29.549Z,-0.11
2023-02-27T06:36:55.994Z,-0.09
2023-02-27T06:39:22.900Z,-0.05
2023-02-27T06:41:49.498Z,-0.04
2023-02-27T06:44:17.958Z,-0.02
2023-02-27T06:46:45.860Z,0.01
2023-02-27T06:49:12.413Z,0.02
2023-02-27T06:51:39.287Z,-0.02
2023-02-27T06:54:06.180Z,0.01
2023-02-27T06:56:32.774Z,0.03
2023-02-27T06:58:59.671Z,0.05
2023-02-27T07:01:26.487Z,0.07
2023-02-27T07:03:53.359Z,0.12
2023-02-27T07:07:33.144Z,0.16
2023-02-27T07:09:12.066Z,0.19
2023-02-27T07:11:38.877Z,0.23
2023-02-27T07:14:07.007Z,0.27
2023-02-27T07:16:34.691Z,0.32
2023-02-27T07:19:01.337Z,0.33
2023-02-27T07:21:27.930Z,0.37
2023-02-27T07:23:54.520Z,0.41
2023-02-27T07:26:21.246Z,0.48
2023-02-27T07:28:47.721Z,0.52
2023-02-27T07:31:14.707Z,0.56
2023-02-27T07:33:41.890Z,0.60
2023-02-27T07:36:08.486Z,0.60
2023-02-27T07:38:35.063Z,0.69
2023-02-27T07:41:01.637Z,0.76
2023-02-27T07:43:28.170Z,0.78
2023-02-27T07:45:54.716Z,0.84
2023-02-27T07:48:21.230Z,0.88
2023-02-27T07:50:47.774Z,0.90
2023-02-27T07:53:14.451Z,0.93
2023-02-27T07:55:42.182Z,0.96
2023-02-27T07:58:08.766Z,1.05
2023-02-27T08:00:35.374Z,1.09
2023-02-27T08:03:01.887Z,1.12
2023-02-27T08:05:28.472Z,1.19
2023-02-27T08:07:55.073Z,1.21
2023-02-27T08:10:21.668Z,1.29
2023-02-27T08:12:48.237Z,1.32
2023-02-27T08:15:16.065Z,1.36
2023-02-27T08:17:42.574Z,1.37
2023-02-27T08:20:11.676Z,1.40
2023-02-27T08:22:38.461Z,1.43
2023-02-27T08:25:07.697Z,1.45
2023-02-27T08:27:34.940Z,1.53
2023-02-27T08:30:01.447Z,1.58
2023-02-27T08:32:28.333Z,1.63
2023-02-27T08:34:54.820Z,1.72
2023-02-27T08:37:22.378Z,1.78
2023-02-27T08:39:48.925Z,1.83
2023-02-27T08:42:15.444Z,1.89
2023-02-27T08:44:42.265Z,1.95
2023-02-27T08:47:08.845Z,1.99
2023-02-27T08:49:35.385Z,2.04
2023-02-27T08:52:03.711Z,2.11
2023-02-27T08:54:30.475Z,2.16
2023-02-27T08:56:56.999Z,2.19
2023-02-27T08:59:23.900Z,2.26
2023-02-27T09:01:50.537Z,2.33
2023-02-27T09:04:17.042Z,2.38
2023-02-27T09:06:43.738Z,2.43
2023-02-27T09:09:11.276Z,2.50
2023-02-27T09:11:38.870Z,2.56
2023-02-27T09:14:06.583Z,2.65
2023-02-27T09:16:33.210Z,2.72
2023-02-27T09:18:59.792Z,2.77
2023-02-27T09:21:26.439Z,2.81
2023-02-27T09:23:53.092Z,2.85
2023-02-27T09:26:19.726Z,2.89
2023-02-27T09:28:46.592Z,2.96
2023-02-27T09:31:13.346Z,3.02
2023-02-27T09:33:40.013Z,3.05
2023-02-27T09:36:09.012Z,3.10
2023-02-27T09:38:36.790Z,3.18
2023-02-27T09:41:08.169Z,3.23
2023-02-27T09:43:43.334Z,3.28
2023-02-27T09:46:19.216Z,3.32
2023-02-27T09:48:52.011Z,3.39
2023-02-27T09:51:19.356Z,3.43
2023-02-27T09:53:50.884Z,3.48
2023-02-27T09:56:28.287Z,3.51
2023-02-27T09:59:22.533Z,3.58
2023-02-27T10:01:50.067Z,3.64
2023-02-27T10:04:37.228Z,3.70
2023-02-27T10:07:04.683Z,3.74
2023-02-27T10:09:38.276Z,3.77
2023-02-27T10:12:24.321Z,3.81
2023-02-27T10:14:57.630Z,3.90
2023-02-27T10:17:29.880Z,4.02
2023-02-27T10:19:58.492Z,4.21
2023-02-27T10:22:31.496Z,4.39
2023-02-27T10:25:06.275Z,4.42
2023-02-27T10:27:35.490Z,4.42
2023-02-27T10:30:29.778Z,4.42
2023-02-27T10:33:07.433Z,4.51
2023-02-27T10:35:37.632Z,4.56
2023-02-27T10:38:18.045Z,4.63
2023-02-27T10:40:46.444Z,4.70
2023-02-27T10:43:16.425Z,4.72
2023-02-27T10:45:43.929Z,4.77
2023-02-27T10:48:12.068Z,4.76
2023-02-27T10:50:42.734Z,4.76
2023-02-27T10:53:18.353Z,4.71
2023-02-27T10:55:57.072Z,4.64
2023-02-27T10:58:25.562Z,4.60
2023-02-27T11:00:58.037Z,4.63
2023-02-27T11:03:29.188Z,4.66
2023-02-27T11:05:58.917Z,4.67
2023-02-27T11:08:30.196Z,4.68
2023-02-27T11:11:06.873Z,4.73
2023-02-27T11:13:36.743Z,4.78
2023-02-27T11:16:07.156Z,4.84
2023-02-27T11:18:55.680Z,4.87
2023-02-27T11:21:44.222Z,4.91
2023-02-27T11:24:21.282Z,5.03
2023-02-27T11:27:38.902Z,5.32
2023-02-27T11:30:53.169Z,5.43
2023-02-27T11:33:21.262Z,5.44
2023-02-27T11:35:57.167Z,5.37
2023-02-27T11:38:29.827Z,5.35
2023-02-27T11:40:58.115Z,5.35
2023-02-27T11:43:47.471Z,5.18
2023-02-27T11:46:47.342Z,5.06
2023-02-27T11:49:40.209Z,5.13
2023-02-27T11:52:20.854Z,5.28
2023-02-27T11:58:18.966Z,5.44
2023-02-27T12:01:04.563Z,5.50
2023-02-27T12:03:56.123Z,5.54
2023-02-27T12:06:30.388Z,5.59
2023-02-27T12:09:02.840Z,5.66
2023-02-27T12:11:36.011Z,5.67
2023-02-27T12:14:11.059Z,5.69
2023-02-27T12:17:04.884Z,5.71
2023-02-27T12:19:40.606Z,5.78
2023-02-27T12:22:31.218Z,5.84
2023-02-27T12:25:34.979Z,5.93
2023-02-27T12:28:20.638Z,6.04
2023-02-27T12:31:34.964Z,6.17
2023-02-27T12:34:08.563Z,6.30
2023-02-27T12:43:02.482Z,6.33
2023-02-27T12:46:26.348Z,6.32
2023-02-27T12:52:32.836Z,6.20
2023-02-27T12:58:37.958Z,6.13
2023-02-27T13:01:27.891Z,6.18
2023-02-27T13:03:56.320Z,6.18
2023-02-27T13:06:33.179Z,6.32
2023-02-27T13:09:11.989Z,6.49
2023-02-27T13:12:15.043Z,6.69
2023-02-27T13:15:37.019Z,6.79
2023-02-27T13:18:30.801Z,6.76
2023-02-27T13:21:08.728Z,6.60
2023-02-27T13:23:40.532Z,6.51
2023-02-27T13:26:22.833Z,6.47
2023-02-27T13:28:51.668Z,6.44
2023-02-27T13:31:33.013Z,6.51
2023-02-27T13:34:27.778Z,6.50
2023-02-27T13:40:30.753Z,6.38
2023-02-27T13:43:04.231Z,6.31
2023-02-27T13:45:58.139Z,6.35
2023-02-27T13:51:36.768Z,6.72
2023-02-27T13:54:27.990Z,6.79
2023-02-27T13:59:59.528Z,6.71
2023-02-27T14:02:40.225Z,6.54
2023-02-27T14:05:43.953Z,6.40
2023-02-27T14:11:58.042Z,6.33
2023-02-27T14:14:49.012Z,6.50
2023-02-27T14:17:36.692Z,6.71
2023-02-27T14:20:10.588Z,6.84
2023-02-27T14:22:40.885Z,6.98
2023-02-27T14:25:17.410Z,6.99
2023-02-27T14:27:45.614Z,6.97
2023-02-27T14:30:34.420Z,6.88
2023-02-27T14:33:12.099Z,6.72
2023-02-27T14:35:38.928Z,6.59
2023-02-27T14:38:11.146Z,6.56
2023-02-27T14:40:55.217Z,6.58
2023-02-27T14:57:07.587Z,6.31
2023-02-27T14:59:42.784Z,6.37
2023-02-27T15:02:24.804Z,6.44
2023-02-27T15:05:15.641Z,6.52
2023-02-27T15:07:47.210Z,6.60
2023-02-27T15:10:24.770Z,6.65
2023-02-27T15:12:53.187Z,6.62
2023-02-27T15:15:21.824Z,6.58
2023-02-27T15:17:52.811Z,6.50
2023-02-27T15:20:25.214Z,6.47
2023-02-27T15:22:51.948Z,6.39
2023-02-27T15:25:39.245Z,6.35
2023-02-27T15:28:16.789Z,6.29
2023-02-27T15:30:48.530Z,6.22
2023-02-27T15:33:17.517Z,6.16
2023-02-27T15:35:46.133Z,6.11
2023-02-27T15:38:31.776Z,6.10
2023-02-27T15:41:00.569Z,6.15
2023-02-27T15:43:28.671Z,6.18
2023-02-27T15:45:59.078Z,6.20
2023-02-27T15:48:26.258Z,6.19
2023-02-27T15:50:56.797Z,6.18
2023-02-27T15:53:26.655Z,6.15
2023-02-27T15:55:59.058Z,6.14
2023-02-27T15:58:27.052Z,6.15
2023-02-27T16:01:03.280Z,6.15
2023-02-27T16:03:35.641Z,6.12
2023-02-27T16:06:03.371Z,6.12
2023-02-27T16:08:31.531Z,6.10
2023-02-27T16:10:58.287Z,6.07
2023-02-27T16:13:25.779Z,6.05
2023-02-27T16:16:05.880Z,6.03
2023-02-27T16:18:45.000Z,5.99
2023-02-27T16:21:15.583Z,5.94
2023-02-27T16:23:43.298Z,5.88
2023-02-27T16:26:28.255Z,5.83
2023-02-27T16:29:01.880Z,5.80
2023-02-27T16:31:40.546Z,5.78
2023-02-27T16:34:12.757Z,5.76
2023-02-27T16:36:40.832Z,5.75
2023-02-27T16:39:12.780Z,5.72
2023-02-27T16:41:39.384Z,5.70
2023-02-27T16:44:06.016Z,5.68
2023-02-27T16:46:32.670Z,5.67
2023-02-27T16:49:04.590Z,5.65
2023-02-27T16:51:37.611Z,5.62
2023-02-27T16:54:04.566Z,5.60
2023-02-27T16:56:38.053Z,5.58
2023-02-27T16:59:05.850Z,5.54
2023-02-27T17:01:34.112Z,5.50
2023-02-27T17:04:01.983Z,5.47
2023-02-27T17:06:30.430Z,5.42
2023-02-27T17:08:58.008Z,5.39
2023-02-27T17:11:24.581Z,5.34
2023-02-27T17:13:51.702Z,5.29
2023-02-27T17:16:18.314Z,5.23
2023-02-27T17:18:48.246Z,5.18
2023-02-27T17:21:14.976Z,5.17
2023-02-27T17:23:41.484Z,5.14
2023-02-27T17:26:08.020Z,5.08
2023-02-27T17:28:34.527Z,5.04
2023-02-27T17:31:02.635Z,4.98
2023-02-27T17:33:31.059Z,4.95
2023-02-27T17:36:03.600Z,4.88
2023-02-27T17:38:30.093Z,4.80
2023-02-27T17:40:56.645Z,4.70
2023-02-27T17:43:23.459Z,4.65
2023-02-27T17:45:50.124Z,4.62
2023-02-27T17:48:16.732Z,4.62
2023-02-27T17:50:44.952Z,4.56
2023-02-27T17:53:11.698Z,4.51
2023-02-27T17:55:40.400Z,4.46
2023-02-27T17:58:07.129Z,4.40
2023-02-27T18:00:34.842Z,4.31
2023-02-27T18:03:02.084Z,4.27
2023-02-27T18:05:28.662Z,4.21
2023-02-27T18:07:55.729Z,4.15
2023-02-27T18:10:22.476Z,4.14
2023-02-27T18:12:48.968Z,4.15
2023-02-27T18:15:15.472Z,4.08
2023-02-27T18:17:44.610Z,4.03
2023-02-27T18:20:13.075Z,3.96
2023-02-27T18:22:39.557Z,4.00
2023-02-27T18:25:07.292Z,4.00
2023-02-27T18:27:34.093Z,4.07
2023-02-27T18:30:35.770Z,4.10
2023-02-27T18:35:53.609Z,4.10
2023-02-27T18:38:32.379Z,4.12
2023-02-27T18:41:08.079Z,4.08
2023-02-27T18:44:07.542Z,4.10
2023-02-27T18:49:42.257Z,4.06
2023-02-27T19:00:51.567Z,3.98
2023-02-27T19:12:44.825Z,3.74
2023-02-27T19:21:31.346Z,3.68
2023-02-27T19:26:47.990Z,3.68
2023-02-27T19:29:27.006Z,3.74
2023-02-27T19:32:14.054Z,3.78
2023-02-27T19:35:04.145Z,3.81
2023-02-27T19:40:30.644Z,3.83
2023-02-27T19:43:02.627Z,3.84
2023-02-27T19:45:39.247Z,3.81
2023-02-27T19:48:15.332Z,3.80
2023-02-27T19:50:54.195Z,3.75
2023-02-27T19:56:24.917Z,3.72
2023-02-27T19:58:52.097Z,3.67
2023-02-27T20:01:27.961Z,3.66
2023-02-27T20:03:56.343Z,3.61
2023-02-27T20:06:26.217Z,3.56
2023-02-27T20:08:54.212Z,3.53
2023-02-27T20:11:21.757Z,3.49
2023-02-27T20:13:50.374Z,3.47
2023-02-27T20:16:20.828Z,3.44
2023-02-27T20:18:48.786Z,3.43
2023-02-27T20:21:24.004Z,3.39
2023-02-27T20:23:51.874Z,3.40
2023-02-27T20:26:23.490Z,3.40
2023-02-27T20:28:52.190Z,3.37
2023-02-27T20:31:22.029Z,3.36
2023-02-27T20:33:49.845Z,3.35
2023-02-27T20:36:16.598Z,3.32
2023-02-27T20:38:43.886Z,3.29
2023-02-27T20:41:13.989Z,3.25
2023-02-27T20:43:43.287Z,3.21
2023-02-27T20:46:15.074Z,3.19
2023-02-27T20:48:42.009Z,3.16
2023-02-27T20:51:11.971Z,3.14
2023-02-27T20:53:40.479Z,3.10
2023-02-27T20:56:08.466Z,3.07
2023-02-27T20:58:36.888Z,3.08
2023-02-27T21:01:11.203Z,3.04
2023-02-27T21:03:39.706Z,3.00
2023-02-27T21:06:08.677Z,2.97
2023-02-27T21:08:39.798Z,2.94
2023-02-27T21:11:09.876Z,2.90
2023-02-27T21:13:37.473Z,2.87
2023-02-27T21:16:05.714Z,2.82
2023-02-27T21:18:32.485Z,2.76
2023-02-27T21:21:04.176Z,2.73
2023-02-27T21:23:30.848Z,2.71
2023-02-27T21:25:57.577Z,2.68
2023-02-27T21:28:24.373Z,2.65
2023-02-27T21:30:54.467Z,2.64
2023-02-27T21:33:22.560Z,2.62
2023-02-27T21:35:49.652Z,2.59
2023-02-27T21:38:18.698Z,2.55
2023-02-27T21:40:45.311Z,2.53
2023-02-27T21:43:12.019Z,2.49
2023-02-27T21:45:42.830Z,2.45
2023-02-27T21:48:09.356Z,2.43
2023-02-27T21:50:36.637Z,2.40
2023-02-27T21:53:03.297Z,2.34
2023-02-27T21:55:30.009Z,2.31
2023-02-27T21:57:56.922Z,2.28
2023-02-27T22:00:26.598Z,2.25
2023-02-27T22:02:53.731Z,2.20
2023-02-27T22:05:22.540Z,2.20
2023-02-27T22:07:49.249Z,2.15
2023-02-27T22:10:16.054Z,2.15
2023-02-27T22:12:43.097Z,2.10
2023-02-27T22:15:10.184Z,2.08
2023-02-27T22:17:36.872Z,2.03
2023-02-27T22:20:05.458Z,2.02
2023-02-27T22:22:32.136Z,2.00
2023-02-27T22:24:59.067Z,1.97
2023-02-27T22:27:25.632Z,1.92
2023-02-27T22:29:52.366Z,1.87
2023-02-27T22:32:19.005Z,1.84
2023-02-27T22:34:45.620Z,1.83
2023-02-27T22:37:13.755Z,1.83
2023-02-27T22:39:41.308Z,1.84
2023-02-27T22:42:08.668Z,1.83
2023-02-27T22:44:35.240Z,1.87
2023-02-27T22:47:01.879Z,1.86
2023-02-27T22:49:28.525Z,1.89
2023-02-27T22:51:55.261Z,1.87
2023-02-27T22:54:23.262Z,1.87
2023-02-27T22:56:51.822Z,1.88
2023-02-27T22:59:18.777Z,1.86
2023-02-27T23:01:45.483Z,1.83
2023-02-27T23:04:12.221Z,1.83
2023-02-27T23:06:40.539Z,1.83
2023-02-27T23:09:16.363Z,1.84
2023-02-27T23:11:43.572Z,1.85
2023-02-27T23:14:11.217Z,1.82
2023-02-27T23:16:37.978Z,1.81
2023-02-27T23:19:04.897Z,1.79
2023-02-27T23:21:35.162Z,1.81
2023-02-27T23:24:20.622Z,1.84
2023-02-27T23:26:49.308Z,1.85
2023-02-27T23:29:15.914Z,1.87
2023-02-27T23:31:43.001Z,1.88
2023-02-27T23:34:09.985Z,1.87
2023-02-27T23:36:38.136Z,1.87
2023-02-27T23:39:05.827Z,1.87
2023-02-27T23:41:33.426Z,1.90
2023-02-27T23:44:01.510Z,1.92
2023-02-27T23:46:30.764Z,1.95
2023-02-27T23:48:59.430Z,1.99
2023-02-27T23:51:27.836Z,2.03
2023-02-27T23:53:55.578Z,2.04
2023-02-27T23:56:25.178Z,2.05
2023-02-27T23:58:56.446Z,2.03
